sensor_id;sensor_type;location;lat;lon;timestamp;P1;durP1;ratioP1;P2;durP2;ratioP2
32649;SDS011;19055;51.064;3.712;2022-09-17T00:00:46;6.95;;;1.50;;
32649;SDS011;19055;51.064;3.712;2022-09-17T00:03:13;9.63;;;1.80;;
32649;SDS011;19055;51.064;3.712;2022-09-17T00:05:40;7.40;;;1.80;;
32649;SDS011;19055;51.064;3.712;2022-09-17T00:08:07;15.20;;;2.10;;
32649;SDS011;19055;51.064;3.712;2022-09-17T00:10:37;6.63;;;1.58;;
32649;SDS011;19055;51.064;3.712;2022-09-17T00:13:04;6.70;;;1.52;;
32649;SDS011;19055;51.064;3.712;2022-09-17T00:15:30;7.80;;;1.80;;
32649;SDS011;19055;51.064;3.712;2022-09-17T00:17:56;5.20;;;1.83;;
32649;SDS011;19055;51.064;3.712;2022-09-17T00:20:23;10.13;;;2.30;;
32649;SDS011;19055;51.064;3.712;2022-09-17T00:22:50;9.07;;;2.08;;
32649;SDS011;19055;51.064;3.712;2022-09-17T00:25:16;10.70;;;2.08;;
32649;SDS011;19055;51.064;3.712;2022-09-17T00:27:42;12.80;;;2.22;;
32649;SDS011;19055;51.064;3.712;2022-09-17T00:30:07;6.78;;;2.00;;
32649;SDS011;19055;51.064;3.712;2022-09-17T00:32:34;9.32;;;2.13;;
32649;SDS011;19055;51.064;3.712;2022-09-17T00:35:00;14.80;;;2.38;;
32649;SDS011;19055;51.064;3.712;2022-09-17T00:37:25;14.60;;;2.67;;
32649;SDS011;19055;51.064;3.712;2022-09-17T00:39:51;14.95;;;2.65;;
32649;SDS011;19055;51.064;3.712;2022-09-17T00:42:17;8.85;;;1.85;;
32649;SDS011;19055;51.064;3.712;2022-09-17T00:49:49;11.05;;;2.20;;
32649;SDS011;19055;51.064;3.712;2022-09-17T00:54:59;12.68;;;2.67;;
32649;SDS011;19055;51.064;3.712;2022-09-17T00:57:45;13.25;;;2.50;;
32649;SDS011;19055;51.064;3.712;2022-09-17T01:00:13;7.22;;;2.25;;
32649;SDS011;19055;51.064;3.712;2022-09-17T01:02:40;13.30;;;2.28;;
32649;SDS011;19055;51.064;3.712;2022-09-17T01:05:07;15.95;;;2.47;;
32649;SDS011;19055;51.064;3.712;2022-09-17T01:07:44;18.52;;;2.42;;
32649;SDS011;19055;51.064;3.712;2022-09-17T01:22:21;14.65;;;3.00;;
32649;SDS011;19055;51.064;3.712;2022-09-17T01:25:56;17.50;;;3.42;;
32649;SDS011;19055;51.064;3.712;2022-09-17T01:28:25;17.65;;;3.15;;
32649;SDS011;19055;51.064;3.712;2022-09-17T01:33:56;17.60;;;2.90;;
32649;SDS011;19055;51.064;3.712;2022-09-17T01:41:55;20.10;;;3.72;;
32649;SDS011;19055;51.064;3.712;2022-09-17T01:44:27;13.90;;;3.30;;
32649;SDS011;19055;51.064;3.712;2022-09-17T01:47:07;17.80;;;2.70;;
32649;SDS011;19055;51.064;3.712;2022-09-17T01:49:40;22.05;;;4.18;;
32649;SDS011;19055;51.064;3.712;2022-09-17T01:52:07;20.95;;;3.10;;
32649;SDS011;19055;51.064;3.712;2022-09-17T01:54:36;21.20;;;3.20;;
32649;SDS011;19055;51.064;3.712;2022-09-17T01:57:11;19.45;;;3.83;;
32649;SDS011;19055;51.064;3.712;2022-09-17T02:00:15;22.20;;;3.58;;
32649;SDS011;19055;51.064;3.712;2022-09-17T02:07:58;17.77;;;3.15;;
32649;SDS011;19055;51.064;3.712;2022-09-17T02:10:36;22.38;;;3.33;;
32649;SDS011;19055;51.064;3.712;2022-09-17T02:13:13;18.27;;;3.67;;
32649;SDS011;19055;51.064;3.712;2022-09-17T02:15:40;18.67;;;3.03;;
32649;SDS011;19055;51.064;3.712;2022-09-17T02:18:17;16.58;;;3.72;;
32649;SDS011;19055;51.064;3.712;2022-09-17T02:20:45;20.35;;;4.15;;
32649;SDS011;19055;51.064;3.712;2022-09-17T02:23:21;24.10;;;3.85;;
32649;SDS011;19055;51.064;3.712;2022-09-17T02:25:56;17.45;;;3.80;;
32649;SDS011;19055;51.064;3.712;2022-09-17T02:28:45;27.10;;;3.60;;
32649;SDS011;19055;51.064;3.712;2022-09-17T02:31:15;17.50;;;3.03;;
32649;SDS011;19055;51.064;3.712;2022-09-17T02:33:42;19.17;;;3.70;;
32649;SDS011;19055;51.064;3.712;2022-09-17T02:36:12;17.40;;;3.63;;
32649;SDS011;19055;51.064;3.712;2022-09-17T02:38:39;15.85;;;3.33;;
32649;SDS011;19055;51.064;3.712;2022-09-17T02:41:17;18.02;;;3.42;;
32649;SDS011;19055;51.064;3.712;2022-09-17T02:43:54;21.65;;;3.65;;
32649;SDS011;19055;51.064;3.712;2022-09-17T02:52:39;24.27;;;4.20;;
32649;SDS011;19055;51.064;3.712;2022-09-17T02:58:22;16.05;;;2.80;;
32649;SDS011;19055;51.064;3.712;2022-09-17T03:01:03;24.58;;;3.78;;
32649;SDS011;19055;51.064;3.712;2022-09-17T03:03:35;21.77;;;4.07;;
32649;SDS011;19055;51.064;3.712;2022-09-17T03:06:04;17.85;;;2.97;;
32649;SDS011;19055;51.064;3.712;2022-09-17T03:08:34;19.80;;;3.53;;
32649;SDS011;19055;51.064;3.712;2022-09-17T03:11:02;12.15;;;2.92;;
32649;SDS011;19055;51.064;3.712;2022-09-17T03:13:29;15.27;;;2.97;;
32649;SDS011;19055;51.064;3.712;2022-09-17T03:15:55;15.20;;;3.13;;
32649;SDS011;19055;51.064;3.712;2022-09-17T03:18:21;22.10;;;4.15;;
32649;SDS011;19055;51.064;3.712;2022-09-17T03:20:47;11.05;;;3.00;;
32649;SDS011;19055;51.064;3.712;2022-09-17T03:23:14;14.77;;;2.38;;
32649;SDS011;19055;51.064;3.712;2022-09-17T03:25:40;11.73;;;2.40;;
32649;SDS011;19055;51.064;3.712;2022-09-17T03:28:09;16.02;;;3.35;;
32649;SDS011;19055;51.064;3.712;2022-09-17T03:30:35;15.52;;;2.38;;
32649;SDS011;19055;51.064;3.712;2022-09-17T03:33:00;14.20;;;3.17;;
32649;SDS011;19055;51.064;3.712;2022-09-17T03:35:26;14.98;;;2.97;;
32649;SDS011;19055;51.064;3.712;2022-09-17T03:37:52;11.45;;;2.45;;
32649;SDS011;19055;51.064;3.712;2022-09-17T03:40:17;13.23;;;2.70;;
32649;SDS011;19055;51.064;3.712;2022-09-17T03:42:44;14.57;;;2.85;;
32649;SDS011;19055;51.064;3.712;2022-09-17T03:45:09;12.52;;;2.42;;
32649;SDS011;19055;51.064;3.712;2022-09-17T03:47:36;14.40;;;2.58;;
32649;SDS011;19055;51.064;3.712;2022-09-17T03:50:02;12.57;;;2.55;;
32649;SDS011;19055;51.064;3.712;2022-09-17T03:52:29;11.90;;;2.03;;
32649;SDS011;19055;51.064;3.712;2022-09-17T03:54:54;10.40;;;2.20;;
32649;SDS011;19055;51.064;3.712;2022-09-17T03:57:20;10.95;;;2.75;;
32649;SDS011;19055;51.064;3.712;2022-09-17T03:59:47;8.75;;;1.98;;
32649;SDS011;19055;51.064;3.712;2022-09-17T04:02:13;11.73;;;2.38;;
32649;SDS011;19055;51.064;3.712;2022-09-17T04:04:38;14.25;;;3.13;;
32649;SDS011;19055;51.064;3.712;2022-09-17T04:07:04;6.75;;;2.10;;
32649;SDS011;19055;51.064;3.712;2022-09-17T04:09:30;11.85;;;2.28;;
32649;SDS011;19055;51.064;3.712;2022-09-17T04:11:56;9.05;;;1.83;;
32649;SDS011;19055;51.064;3.712;2022-09-17T04:14:22;9.70;;;2.15;;
32649;SDS011;19055;51.064;3.712;2022-09-17T04:16:47;8.27;;;1.70;;
32649;SDS011;19055;51.064;3.712;2022-09-17T04:19:13;8.63;;;1.77;;
32649;SDS011;19055;51.064;3.712;2022-09-17T04:21:39;11.05;;;2.40;;
32649;SDS011;19055;51.064;3.712;2022-09-17T04:24:05;8.30;;;1.98;;
32649;SDS011;19055;51.064;3.712;2022-09-17T04:26:31;8.73;;;2.08;;
32649;SDS011;19055;51.064;3.712;2022-09-17T04:28:57;7.95;;;1.80;;
32649;SDS011;19055;51.064;3.712;2022-09-17T04:31:22;10.30;;;1.60;;
32649;SDS011;19055;51.064;3.712;2022-09-17T04:33:49;10.55;;;2.20;;
32649;SDS011;19055;51.064;3.712;2022-09-17T04:36:15;9.20;;;2.08;;
32649;SDS011;19055;51.064;3.712;2022-09-17T04:38:41;10.93;;;2.17;;
32649;SDS011;19055;51.064;3.712;2022-09-17T04:41:07;12.00;;;2.30;;
32649;SDS011;19055;51.064;3.712;2022-09-17T04:43:33;9.15;;;2.03;;
32649;SDS011;19055;51.064;3.712;2022-09-17T04:45:59;9.55;;;2.25;;
32649;SDS011;19055;51.064;3.712;2022-09-17T04:48:25;13.50;;;2.42;;
32649;SDS011;19055;51.064;3.712;2022-09-17T04:50:51;12.32;;;2.03;;
32649;SDS011;19055;51.064;3.712;2022-09-17T04:53:16;12.25;;;2.58;;
32649;SDS011;19055;51.064;3.712;2022-09-17T04:55:43;10.85;;;1.88;;
32649;SDS011;19055;51.064;3.712;2022-09-17T04:58:09;10.70;;;2.67;;
32649;SDS011;19055;51.064;3.712;2022-09-17T05:00:35;16.08;;;2.60;;
32649;SDS011;19055;51.064;3.712;2022-09-17T05:03:01;15.15;;;2.90;;
32649;SDS011;19055;51.064;3.712;2022-09-17T05:05:27;12.18;;;2.70;;
32649;SDS011;19055;51.064;3.712;2022-09-17T05:07:53;16.02;;;2.25;;
32649;SDS011;19055;51.064;3.712;2022-09-17T05:10:19;16.90;;;2.58;;
32649;SDS011;19055;51.064;3.712;2022-09-17T05:12:50;13.55;;;2.28;;
32649;SDS011;19055;51.064;3.712;2022-09-17T05:15:16;12.57;;;2.63;;
32649;SDS011;19055;51.064;3.712;2022-09-17T05:17:42;9.70;;;2.17;;
32649;SDS011;19055;51.064;3.712;2022-09-17T05:20:08;12.13;;;2.97;;
32649;SDS011;19055;51.064;3.712;2022-09-17T05:22:39;10.07;;;1.88;;
32649;SDS011;19055;51.064;3.712;2022-09-17T05:25:09;11.55;;;3.00;;
32649;SDS011;19055;51.064;3.712;2022-09-17T05:27:36;10.63;;;2.67;;
32649;SDS011;19055;51.064;3.712;2022-09-17T05:30:03;11.35;;;2.55;;
32649;SDS011;19055;51.064;3.712;2022-09-17T05:32:29;8.50;;;2.67;;
32649;SDS011;19055;51.064;3.712;2022-09-17T05:34:55;9.90;;;2.25;;
32649;SDS011;19055;51.064;3.712;2022-09-17T05:37:21;12.50;;;2.22;;
32649;SDS011;19055;51.064;3.712;2022-09-17T05:39:47;7.53;;;2.25;;
32649;SDS011;19055;51.064;3.712;2022-09-17T05:42:12;11.63;;;2.70;;
32649;SDS011;19055;51.064;3.712;2022-09-17T05:44:38;9.55;;;1.70;;
32649;SDS011;19055;51.064;3.712;2022-09-17T05:47:04;7.65;;;1.75;;
32649;SDS011;19055;51.064;3.712;2022-09-17T05:49:30;6.20;;;1.63;;
32649;SDS011;19055;51.064;3.712;2022-09-17T05:51:56;9.63;;;1.83;;
32649;SDS011;19055;51.064;3.712;2022-09-17T05:54:21;6.43;;;1.75;;
32649;SDS011;19055;51.064;3.712;2022-09-17T05:56:47;7.78;;;1.58;;
32649;SDS011;19055;51.064;3.712;2022-09-17T05:59:16;6.13;;;1.33;;
32649;SDS011;19055;51.064;3.712;2022-09-17T06:01:43;7.13;;;1.95;;
32649;SDS011;19055;51.064;3.712;2022-09-17T06:04:09;9.38;;;1.85;;
32649;SDS011;19055;51.064;3.712;2022-09-17T06:06:35;6.93;;;1.98;;
32649;SDS011;19055;51.064;3.712;2022-09-17T06:09:03;8.48;;;2.00;;
32649;SDS011;19055;51.064;3.712;2022-09-17T06:11:29;7.20;;;1.80;;
32649;SDS011;19055;51.064;3.712;2022-09-17T06:13:55;9.07;;;2.15;;
32649;SDS011;19055;51.064;3.712;2022-09-17T06:16:21;9.13;;;1.42;;
32649;SDS011;19055;51.064;3.712;2022-09-17T06:18:48;9.20;;;1.75;;
32649;SDS011;19055;51.064;3.712;2022-09-17T06:21:17;5.60;;;1.75;;
32649;SDS011;19055;51.064;3.712;2022-09-17T06:23:45;5.68;;;1.25;;
32649;SDS011;19055;51.064;3.712;2022-09-17T06:26:12;7.45;;;1.48;;
32649;SDS011;19055;51.064;3.712;2022-09-17T06:28:38;7.90;;;1.58;;
32649;SDS011;19055;51.064;3.712;2022-09-17T06:31:04;6.95;;;1.25;;
32649;SDS011;19055;51.064;3.712;2022-09-17T06:33:32;5.85;;;1.60;;
32649;SDS011;19055;51.064;3.712;2022-09-17T06:35:58;9.57;;;2.13;;
32649;SDS011;19055;51.064;3.712;2022-09-17T06:38:29;9.90;;;2.08;;
32649;SDS011;19055;51.064;3.712;2022-09-17T06:40:57;11.13;;;2.45;;
32649;SDS011;19055;51.064;3.712;2022-09-17T06:43:23;7.35;;;1.98;;
32649;SDS011;19055;51.064;3.712;2022-09-17T06:45:50;13.75;;;2.17;;
32649;SDS011;19055;51.064;3.712;2022-09-17T06:48:20;15.65;;;2.00;;
32649;SDS011;19055;51.064;3.712;2022-09-17T06:50:47;12.05;;;2.10;;
32649;SDS011;19055;51.064;3.712;2022-09-17T06:53:13;10.70;;;1.70;;
32649;SDS011;19055;51.064;3.712;2022-09-17T06:55:39;13.07;;;1.92;;
32649;SDS011;19055;51.064;3.712;2022-09-17T06:58:05;6.45;;;1.52;;
32649;SDS011;19055;51.064;3.712;2022-09-17T07:00:31;7.45;;;1.88;;
32649;SDS011;19055;51.064;3.712;2022-09-17T07:02:57;11.68;;;1.90;;
32649;SDS011;19055;51.064;3.712;2022-09-17T07:05:24;9.23;;;1.90;;
32649;SDS011;19055;51.064;3.712;2022-09-17T07:07:51;6.07;;;2.53;;
32649;SDS011;19055;51.064;3.712;2022-09-17T07:10:17;7.68;;;1.75;;
32649;SDS011;19055;51.064;3.712;2022-09-17T07:12:43;5.78;;;1.42;;
32649;SDS011;19055;51.064;3.712;2022-09-17T07:15:09;7.18;;;1.77;;
32649;SDS011;19055;51.064;3.712;2022-09-17T07:17:38;6.95;;;1.70;;
32649;SDS011;19055;51.064;3.712;2022-09-17T07:20:08;4.43;;;1.40;;
32649;SDS011;19055;51.064;3.712;2022-09-17T07:22:34;5.88;;;1.33;;
32649;SDS011;19055;51.064;3.712;2022-09-17T07:25:00;5.15;;;1.27;;
32649;SDS011;19055;51.064;3.712;2022-09-17T07:27:29;5.10;;;1.77;;
32649;SDS011;19055;51.064;3.712;2022-09-17T07:29:56;6.10;;;1.42;;
32649;SDS011;19055;51.064;3.712;2022-09-17T07:32:22;5.40;;;1.10;;
32649;SDS011;19055;51.064;3.712;2022-09-17T07:34:48;7.20;;;1.40;;
32649;SDS011;19055;51.064;3.712;2022-09-17T07:37:14;9.18;;;1.73;;
32649;SDS011;19055;51.064;3.712;2022-09-17T07:39:41;4.65;;;1.30;;
32649;SDS011;19055;51.064;3.712;2022-09-17T07:42:08;5.15;;;1.77;;
32649;SDS011;19055;51.064;3.712;2022-09-17T07:44:34;7.13;;;1.33;;
32649;SDS011;19055;51.064;3.712;2022-09-17T07:47:00;44.55;;;4.03;;
32649;SDS011;19055;51.064;3.712;2022-09-17T07:49:26;5.78;;;1.70;;
32649;SDS011;19055;51.064;3.712;2022-09-17T07:51:52;6.45;;;1.40;;
32649;SDS011;19055;51.064;3.712;2022-09-17T07:54:19;7.68;;;1.55;;
32649;SDS011;19055;51.064;3.712;2022-09-17T07:56:45;7.93;;;1.50;;
32649;SDS011;19055;51.064;3.712;2022-09-17T07:59:11;5.28;;;1.15;;
32649;SDS011;19055;51.064;3.712;2022-09-17T08:01:36;4.53;;;1.13;;
32649;SDS011;19055;51.064;3.712;2022-09-17T08:04:03;5.75;;;2.00;;
32649;SDS011;19055;51.064;3.712;2022-09-17T08:06:29;5.75;;;1.10;;
32649;SDS011;19055;51.064;3.712;2022-09-17T08:08:55;4.88;;;1.50;;
32649;SDS011;19055;51.064;3.712;2022-09-17T08:11:25;4.57;;;1.70;;
32649;SDS011;19055;51.064;3.712;2022-09-17T08:13:53;5.13;;;1.42;;
32649;SDS011;19055;51.064;3.712;2022-09-17T08:16:19;3.38;;;1.15;;
32649;SDS011;19055;51.064;3.712;2022-09-17T08:18:47;4.95;;;1.17;;
32649;SDS011;19055;51.064;3.712;2022-09-17T08:21:17;6.30;;;1.38;;
32649;SDS011;19055;51.064;3.712;2022-09-17T08:23:43;7.78;;;1.60;;
32649;SDS011;19055;51.064;3.712;2022-09-17T08:26:13;5.68;;;1.40;;
32649;SDS011;19055;51.064;3.712;2022-09-17T08:28:43;3.25;;;1.70;;
32649;SDS011;19055;51.064;3.712;2022-09-17T08:31:12;5.55;;;1.45;;
32649;SDS011;19055;51.064;3.712;2022-09-17T08:33:40;6.03;;;1.52;;
32649;SDS011;19055;51.064;3.712;2022-09-17T08:36:07;3.78;;;1.48;;
32649;SDS011;19055;51.064;3.712;2022-09-17T08:38:35;7.07;;;1.50;;
32649;SDS011;19055;51.064;3.712;2022-09-17T08:43:41;4.43;;;1.63;;
32649;SDS011;19055;51.064;3.712;2022-09-17T08:49:16;4.53;;;1.45;;
32649;SDS011;19055;51.064;3.712;2022-09-17T08:55:03;8.82;;;2.20;;
32649;SDS011;19055;51.064;3.712;2022-09-17T09:05:19;6.40;;;1.20;;
32649;SDS011;19055;51.064;3.712;2022-09-17T09:07:51;2.35;;;0.90;;
32649;SDS011;19055;51.064;3.712;2022-09-17T09:10:22;3.33;;;0.98;;
32649;SDS011;19055;51.064;3.712;2022-09-17T09:12:51;2.97;;;0.93;;
32649;SDS011;19055;51.064;3.712;2022-09-17T09:15:34;3.22;;;0.90;;
32649;SDS011;19055;51.064;3.712;2022-09-17T09:18:28;1.88;;;0.80;;
32649;SDS011;19055;51.064;3.712;2022-09-17T09:23:52;4.85;;;1.25;;
32649;SDS011;19055;51.064;3.712;2022-09-17T09:29:03;5.80;;;1.20;;
32649;SDS011;19055;51.064;3.712;2022-09-17T09:34:06;3.50;;;0.95;;
32649;SDS011;19055;51.064;3.712;2022-09-17T09:36:35;5.75;;;1.20;;
32649;SDS011;19055;51.064;3.712;2022-09-17T09:39:05;4.93;;;1.65;;
32649;SDS011;19055;51.064;3.712;2022-09-17T09:41:51;5.05;;;1.13;;
32649;SDS011;19055;51.064;3.712;2022-09-17T09:49:35;6.30;;;1.67;;
32649;SDS011;19055;51.064;3.712;2022-09-17T09:52:31;5.87;;;1.50;;
32649;SDS011;19055;51.064;3.712;2022-09-17T09:58:02;4.93;;;1.23;;
32649;SDS011;19055;51.064;3.712;2022-09-17T10:00:41;6.72;;;1.65;;
32649;SDS011;19055;51.064;3.712;2022-09-17T10:03:21;8.45;;;1.38;;
32649;SDS011;19055;51.064;3.712;2022-09-17T10:06:03;7.07;;;1.90;;
32649;SDS011;19055;51.064;3.712;2022-09-17T10:08:31;7.95;;;1.80;;
32649;SDS011;19055;51.064;3.712;2022-09-17T10:11:03;4.25;;;1.10;;
32649;SDS011;19055;51.064;3.712;2022-09-17T10:13:32;5.60;;;1.73;;
32649;SDS011;19055;51.064;3.712;2022-09-17T10:16:18;6.43;;;1.65;;
32649;SDS011;19055;51.064;3.712;2022-09-17T10:18:48;7.88;;;1.83;;
32649;SDS011;19055;51.064;3.712;2022-09-17T10:21:19;8.02;;;1.92;;
32649;SDS011;19055;51.064;3.712;2022-09-17T10:23:56;5.65;;;1.60;;
32649;SDS011;19055;51.064;3.712;2022-09-17T10:26:33;5.97;;;1.77;;
32649;SDS011;19055;51.064;3.712;2022-09-17T10:31:30;8.45;;;2.35;;
32649;SDS011;19055;51.064;3.712;2022-09-17T10:34:18;11.35;;;2.92;;
32649;SDS011;19055;51.064;3.712;2022-09-17T10:36:46;7.88;;;1.88;;
32649;SDS011;19055;51.064;3.712;2022-09-17T10:41:54;9.38;;;1.98;;
32649;SDS011;19055;51.064;3.712;2022-09-17T10:44:21;7.18;;;1.80;;
32649;SDS011;19055;51.064;3.712;2022-09-17T10:46:48;2.47;;;1.30;;
32649;SDS011;19055;51.064;3.712;2022-09-17T10:49:27;7.22;;;1.23;;
32649;SDS011;19055;51.064;3.712;2022-09-17T10:57:41;7.07;;;1.70;;
32649;SDS011;19055;51.064;3.712;2022-09-17T11:00:41;7.22;;;1.85;;
32649;SDS011;19055;51.064;3.712;2022-09-17T11:20:06;7.97;;;2.08;;
32649;SDS011;19055;51.064;3.712;2022-09-17T11:28:05;30.17;;;4.68;;
32649;SDS011;19055;51.064;3.712;2022-09-17T11:30:45;11.40;;;1.95;;
32649;SDS011;19055;51.064;3.712;2022-09-17T11:36:09;6.55;;;1.80;;
32649;SDS011;19055;51.064;3.712;2022-09-17T11:38:47;8.55;;;2.03;;
32649;SDS011;19055;51.064;3.712;2022-09-17T11:43:48;9.60;;;2.38;;
32649;SDS011;19055;51.064;3.712;2022-09-17T11:46:28;6.25;;;1.80;;
32649;SDS011;19055;51.064;3.712;2022-09-17T11:52:01;7.10;;;1.92;;
32649;SDS011;19055;51.064;3.712;2022-09-17T11:57:18;10.15;;;2.53;;
32649;SDS011;19055;51.064;3.712;2022-09-17T11:59:51;6.97;;;1.90;;
32649;SDS011;19055;51.064;3.712;2022-09-17T12:05:32;7.22;;;1.70;;
32649;SDS011;19055;51.064;3.712;2022-09-17T12:10:42;9.75;;;2.30;;
32649;SDS011;19055;51.064;3.712;2022-09-17T12:15:50;6.00;;;2.17;;
32649;SDS011;19055;51.064;3.712;2022-09-17T12:18:31;8.43;;;2.00;;
32649;SDS011;19055;51.064;3.712;2022-09-17T12:21:24;12.50;;;3.63;;
32649;SDS011;19055;51.064;3.712;2022-09-17T12:24:25;10.75;;;2.58;;
32649;SDS011;19055;51.064;3.712;2022-09-17T12:27:03;5.63;;;1.92;;
32649;SDS011;19055;51.064;3.712;2022-09-17T12:41:00;13.07;;;3.25;;
32649;SDS011;19055;51.064;3.712;2022-09-17T12:44:00;7.45;;;1.70;;
32649;SDS011;19055;51.064;3.712;2022-09-17T12:47:06;9.23;;;2.10;;
32649;SDS011;19055;51.064;3.712;2022-09-17T12:52:20;9.23;;;1.83;;
32649;SDS011;19055;51.064;3.712;2022-09-17T13:01:19;4.18;;;1.30;;
32649;SDS011;19055;51.064;3.712;2022-09-17T13:03:59;5.72;;;1.70;;
32649;SDS011;19055;51.064;3.712;2022-09-17T13:12:06;4.05;;;1.50;;
32649;SDS011;19055;51.064;3.712;2022-09-17T13:17:06;7.88;;;1.65;;
32649;SDS011;19055;51.064;3.712;2022-09-17T13:19:46;9.02;;;1.60;;
32649;SDS011;19055;51.064;3.712;2022-09-17T13:22:21;9.30;;;2.05;;
32649;SDS011;19055;51.064;3.712;2022-09-17T13:25:03;4.15;;;1.45;;
32649;SDS011;19055;51.064;3.712;2022-09-17T13:27:34;5.05;;;1.35;;
32649;SDS011;19055;51.064;3.712;2022-09-17T13:30:02;5.25;;;1.40;;
32649;SDS011;19055;51.064;3.712;2022-09-17T13:40:03;7.40;;;1.60;;
32649;SDS011;19055;51.064;3.712;2022-09-17T13:42:52;4.32;;;1.42;;
32649;SDS011;19055;51.064;3.712;2022-09-17T13:45:22;7.18;;;1.48;;
32649;SDS011;19055;51.064;3.712;2022-09-17T13:47:50;5.43;;;1.20;;
32649;SDS011;19055;51.064;3.712;2022-09-17T13:50:27;7.65;;;1.50;;
32649;SDS011;19055;51.064;3.712;2022-09-17T13:58:05;9.13;;;3.42;;
32649;SDS011;19055;51.064;3.712;2022-09-17T14:00:51;8.45;;;2.67;;
32649;SDS011;19055;51.064;3.712;2022-09-17T14:13:51;2.22;;;1.30;;
32649;SDS011;19055;51.064;3.712;2022-09-17T14:27:12;7.75;;;2.30;;
32649;SDS011;19055;51.064;3.712;2022-09-17T14:32:53;7.28;;;1.63;;
32649;SDS011;19055;51.064;3.712;2022-09-17T14:38:11;6.28;;;2.40;;
32649;SDS011;19055;51.064;3.712;2022-09-17T14:40:45;3.85;;;1.13;;
32649;SDS011;19055;51.064;3.712;2022-09-17T14:43:17;6.40;;;3.58;;
32649;SDS011;19055;51.064;3.712;2022-09-17T14:45:47;8.13;;;2.72;;
32649;SDS011;19055;51.064;3.712;2022-09-17T14:48:37;3.65;;;1.80;;
32649;SDS011;19055;51.064;3.712;2022-09-17T14:53:43;6.70;;;2.45;;
32649;SDS011;19055;51.064;3.712;2022-09-17T14:56:11;4.32;;;1.80;;
32649;SDS011;19055;51.064;3.712;2022-09-17T14:58:40;6.57;;;1.92;;
32649;SDS011;19055;51.064;3.712;2022-09-17T15:01:19;10.00;;;1.92;;
32649;SDS011;19055;51.064;3.712;2022-09-17T15:06:41;3.88;;;1.95;;
32649;SDS011;19055;51.064;3.712;2022-09-17T15:09:20;5.07;;;1.80;;
32649;SDS011;19055;51.064;3.712;2022-09-17T15:11:48;5.00;;;1.50;;
32649;SDS011;19055;51.064;3.712;2022-09-17T15:14:23;3.80;;;0.95;;
32649;SDS011;19055;51.064;3.712;2022-09-17T15:16:55;2.78;;;1.17;;
32649;SDS011;19055;51.064;3.712;2022-09-17T15:20:05;6.05;;;2.13;;
32649;SDS011;19055;51.064;3.712;2022-09-17T15:24:48;8.13;;;1.70;;
32649;SDS011;19055;51.064;3.712;2022-09-17T15:27:21;7.22;;;1.08;;
32649;SDS011;19055;51.064;3.712;2022-09-17T15:30:04;4.15;;;1.80;;
32649;SDS011;19055;51.064;3.712;2022-09-17T15:32:35;7.93;;;1.75;;
32649;SDS011;19055;51.064;3.712;2022-09-17T15:37:47;5.82;;;2.00;;
32649;SDS011;19055;51.064;3.712;2022-09-17T15:45:40;6.63;;;1.80;;
32649;SDS011;19055;51.064;3.712;2022-09-17T15:51:04;5.78;;;1.80;;
32649;SDS011;19055;51.064;3.712;2022-09-17T15:53:38;10.82;;;3.45;;
32649;SDS011;19055;51.064;3.712;2022-09-17T15:56:15;10.85;;;4.18;;
32649;SDS011;19055;51.064;3.712;2022-09-17T16:09:34;8.95;;;2.72;;
32649;SDS011;19055;51.064;3.712;2022-09-17T16:11:54;8.45;;;3.28;;
32649;SDS011;19055;51.064;3.712;2022-09-17T16:14:20;8.45;;;2.67;;
32649;SDS011;19055;51.064;3.712;2022-09-17T16:16:46;8.65;;;2.58;;
32649;SDS011;19055;51.064;3.712;2022-09-17T16:19:12;9.85;;;2.70;;
32649;SDS011;19055;51.064;3.712;2022-09-17T16:21:38;9.30;;;2.20;;
32649;SDS011;19055;51.064;3.712;2022-09-17T16:24:04;9.40;;;2.80;;
32649;SDS011;19055;51.064;3.712;2022-09-17T16:26:30;11.40;;;2.78;;
32649;SDS011;19055;51.064;3.712;2022-09-17T16:29:02;11.32;;;1.95;;
32649;SDS011;19055;51.064;3.712;2022-09-17T16:31:33;10.10;;;2.25;;
32649;SDS011;19055;51.064;3.712;2022-09-17T16:33:58;10.60;;;2.60;;
32649;SDS011;19055;51.064;3.712;2022-09-17T16:36:24;12.65;;;4.22;;
32649;SDS011;19055;51.064;3.712;2022-09-17T16:38:51;8.52;;;4.00;;
32649;SDS011;19055;51.064;3.712;2022-09-17T16:41:17;11.32;;;3.50;;
32649;SDS011;19055;51.064;3.712;2022-09-17T16:43:43;10.18;;;3.00;;
32649;SDS011;19055;51.064;3.712;2022-09-17T16:46:09;12.40;;;2.83;;
32649;SDS011;19055;51.064;3.712;2022-09-17T16:48:36;6.97;;;2.38;;
32649;SDS011;19055;51.064;3.712;2022-09-17T16:51:05;12.23;;;2.47;;
32649;SDS011;19055;51.064;3.712;2022-09-17T16:53:33;8.02;;;1.85;;
32649;SDS011;19055;51.064;3.712;2022-09-17T16:55:59;5.35;;;1.67;;
32649;SDS011;19055;51.064;3.712;2022-09-17T16:58:25;7.15;;;1.98;;
32649;SDS011;19055;51.064;3.712;2022-09-17T17:00:50;7.45;;;2.58;;
32649;SDS011;19055;51.064;3.712;2022-09-17T17:03:16;6.93;;;2.10;;
32649;SDS011;19055;51.064;3.712;2022-09-17T17:05:42;7.95;;;1.77;;
32649;SDS011;19055;51.064;3.712;2022-09-17T17:08:08;5.50;;;1.60;;
32649;SDS011;19055;51.064;3.712;2022-09-17T17:10:35;9.02;;;2.13;;
32649;SDS011;19055;51.064;3.712;2022-09-17T17:13:02;5.85;;;1.83;;
32649;SDS011;19055;51.064;3.712;2022-09-17T17:15:29;3.75;;;1.58;;
32649;SDS011;19055;51.064;3.712;2022-09-17T17:17:55;7.32;;;2.33;;
32649;SDS011;19055;51.064;3.712;2022-09-17T17:20:21;8.05;;;1.95;;
32649;SDS011;19055;51.064;3.712;2022-09-17T17:22:47;9.93;;;2.65;;
32649;SDS011;19055;51.064;3.712;2022-09-17T17:25:15;8.88;;;3.03;;
32649;SDS011;19055;51.064;3.712;2022-09-17T17:27:42;9.50;;;2.30;;
32649;SDS011;19055;51.064;3.712;2022-09-17T17:30:09;10.63;;;2.60;;
32649;SDS011;19055;51.064;3.712;2022-09-17T17:32:40;5.68;;;1.88;;
32649;SDS011;19055;51.064;3.712;2022-09-17T17:35:06;8.57;;;2.22;;
32649;SDS011;19055;51.064;3.712;2022-09-17T17:37:33;12.55;;;3.20;;
32649;SDS011;19055;51.064;3.712;2022-09-17T17:39:59;7.13;;;2.17;;
32649;SDS011;19055;51.064;3.712;2022-09-17T17:42:25;8.38;;;2.17;;
32649;SDS011;19055;51.064;3.712;2022-09-17T17:44:51;9.50;;;2.85;;
32649;SDS011;19055;51.064;3.712;2022-09-17T17:47:19;6.57;;;1.75;;
32649;SDS011;19055;51.064;3.712;2022-09-17T17:49:45;6.70;;;1.73;;
32649;SDS011;19055;51.064;3.712;2022-09-17T17:52:12;7.32;;;2.25;;
32649;SDS011;19055;51.064;3.712;2022-09-17T17:54:38;5.03;;;1.70;;
32649;SDS011;19055;51.064;3.712;2022-09-17T17:57:04;18.00;;;2.67;;
32649;SDS011;19055;51.064;3.712;2022-09-17T17:59:30;5.88;;;2.17;;
32649;SDS011;19055;51.064;3.712;2022-09-17T18:01:55;9.00;;;2.65;;
32649;SDS011;19055;51.064;3.712;2022-09-17T18:04:21;8.10;;;1.85;;
32649;SDS011;19055;51.064;3.712;2022-09-17T18:06:47;17.80;;;6.32;;
32649;SDS011;19055;51.064;3.712;2022-09-17T18:09:13;8.05;;;3.90;;
32649;SDS011;19055;51.064;3.712;2022-09-17T18:11:39;8.88;;;2.45;;
32649;SDS011;19055;51.064;3.712;2022-09-17T18:14:05;7.43;;;2.65;;
32649;SDS011;19055;51.064;3.712;2022-09-17T18:16:30;9.85;;;3.97;;
32649;SDS011;19055;51.064;3.712;2022-09-17T18:18:56;10.55;;;3.80;;
32649;SDS011;19055;51.064;3.712;2022-09-17T18:21:22;10.70;;;5.03;;
32649;SDS011;19055;51.064;3.712;2022-09-17T18:23:49;9.48;;;4.15;;
32649;SDS011;19055;51.064;3.712;2022-09-17T18:26:20;12.43;;;5.78;;
32649;SDS011;19055;51.064;3.712;2022-09-17T18:28:47;12.60;;;5.32;;
32649;SDS011;19055;51.064;3.712;2022-09-17T18:31:21;12.38;;;5.22;;
32649;SDS011;19055;51.064;3.712;2022-09-17T18:33:58;10.90;;;2.97;;
32649;SDS011;19055;51.064;3.712;2022-09-17T18:36:29;8.80;;;3.30;;
32649;SDS011;19055;51.064;3.712;2022-09-17T18:38:57;9.15;;;2.42;;
32649;SDS011;19055;51.064;3.712;2022-09-17T18:41:29;7.53;;;3.60;;
32649;SDS011;19055;51.064;3.712;2022-09-17T18:43:56;11.40;;;3.58;;
32649;SDS011;19055;51.064;3.712;2022-09-17T18:46:25;9.63;;;3.30;;